Tiempo atmosférico en la estación meteorológica de La Vall de Bianya, Girona (440 m.)



Fecha
DESCASC
Temp. máxima en grados centígrados (hora)
DESCASC
Temp. mínima en grados centígrados (hora)
DESCASC
Temp. media en grados centígrados
DESCASC
Racha de viento máxima en m/sg (hora)
DESCASC
Velocidad máxima media en intervalos de 10 minutos(hora)
DESCASC
Precipitaciones diarias en mm
DESCASC
Precipitaciones de 00:00 a 06:00 en mm
DESCASC
Precipitaciones de 06:00 a 12:00 en mm
DESCASC
Precipitaciones de 12:00 a 18:00 en mm
DESCASC
Precipitaciones de 18:00 a 24:00 en mm
DESCASC
22-01-2020 11.5 (15:30) 6.3 (07:20) 8.9 13.33 (03:40) 7.22 (03:40) 173.2 69.4 51 17.4 35.4
21-01-2020 9.2 (22:10) 1.7 (06:20) 5.4 11.39 (23:59) 5 (22:00) 129.4 20.6 36.8 42 30
20-01-2020 7.2 (02:20) 3.6 (23:20) 5.4 11.39 (00:30) 5.28 (00:10) 4.4 0 0 0 4.4
19-01-2020 11.1 (12:20) 2.8 (00:00) 7 16.67 (17:30) 6.67 (18:20) 0 0 0 0 0
18-01-2020 12.7 (14:10) -2.1 (-00:0) 5.3 6.94 (15:10) 3.33 (14:50) 0 0 0 0 0
17-01-2020 17.3 (14:20) 0.1 (00:00) 8.7 9.72 (17:10) 3.89 (16:30) 1 0 0 1 0
16-01-2020 13.3 (15:00) -3.3 (-00:0) 5 5.56 (16:00) 2.5 (15:50) 0 0 0 0 0
15-01-2020 14.7 (15:00) -2.8 (-00:0) 5.9 5.28 (14:30) 3.06 (14:30) 0 0 0 0 0
14-01-2020 12.3 (15:00) -4.1 (-00:0) 4.1 5.56 (16:30) 3.33 (16:30) 0 0 0 0 0
13-01-2020 11.3 (14:20) -5.1 (-00:0) 3.1 4.44 (16:30) 2.22 (16:30) 0 0 0 0 0
12-01-2020 11.5 (14:20) -4.5 (-00:0) 3.5 1.94 (17:20) 1.39 (00:10) 0 0 0 0 0
11-01-2020 11.7 (15:00) -1.6 (-00:0) 5 4.17 (14:40) 2.22 (14:40) 0 0 0 0 0
10-01-2020 13.2 (15:30) 0.3 (00:00) 6.7 3.06 (05:10) 1.39 (09:40) 4.6 0.6 4 0 0
09-01-2020 15 (15:00) -1.3 (-00:0) 6.9 5.28 (17:10) 2.78 (17:10) 0 0 0 0 0
08-01-2020 16.6 (15:00) -1.6 (-00:0) 7.5 4.17 (16:50) 2.22 (15:40) 0 0 0 0 0
07-01-2020 14.4 (14:10) -1.9 (-00:0) 6.2 3.61 (14:10) 1.94 (14:20) 0 0 0 0 0
06-01-2020 13.1 (15:00) -3.6 (-00:0) 4.8 3.33 (15:50) 1.94 (15:50) 0 0 0 0 0
05-01-2020 16.5 (14:20) -3.2 (-00:0) 6.6 6.94 (13:40) 3.61 (13:30) 0 0 0 0 0
04-01-2020 13.7 (14:20) -2.7 (-00:0) 5.5 2.5 (06:50) 1.67 (06:50) 0 0 0 0 0
03-01-2020 11.8 (14:40) -1.7 (-00:0) 5.1 3.61 (19:30) 2.22 (19:30) 0 0 0 0 0
02-01-2020 10.6 (14:50) -0.5 (-00:0) 5.1 3.89 (16:30) 2.5 (16:30) 0 0 0 0 0
01-01-2020 11.9 (15:00) -2.8 (-00:0) 4.5 5 (13:20) 3.33 (14:00) 0 0 0 0 0
31-12-2019 13.7 (13:30) 0 (00:00) 6.8 5.28 (16:50) 2.5 (16:40) 0 0 0 0 0
30-12-2019 12.5 (15:00) -0.9 (-00:0) 5.8 5 (16:40) 2.78 (16:20) 0 0 0 0 0
29-12-2019 12.1 (15:00) -0.1 (00:00) 6 4.17 (16:20) 2.5 (15:20) 0 0 0 0 0
28-12-2019 13.9 (13:30) -1.5 (-00:0) 6.2 3.89 (14:40) 2.22 (15:00) 0 0 0 0 0
27-12-2019 11.5 (15:00) 0.9 (00:00) 6.2 4.17 (19:30) 1.67 (23:00) 0 0 0 0 0

Gráficas

Temp. máximas Temp. mínimas Temp. medias Precipitaciones Rachas de viento máximas Velocidades máximas media en intervalos de 10 minutos

Datos horarios

Fecha y hora oficial Temperatura (ºC) Velocidad del viento (km/h) Dirección del viento Racha (km/h) Dirección de racha Precipitación (mm) Presión (hPa) Tendencia (hPa) Humedad (%)
2020-01-25 23:00:00 3.9 0 Calma 7 Oeste 0 -- -- 96
2020-01-25 22:00:00 5 3 Sudoeste 4 Sudoeste 0 -- -- 95
2020-01-25 21:00:00 6.7 0 Calma 4 Oeste 0 -- -- 91
2020-01-25 20:00:00 8.1 0 Calma 4 Sudoeste 0 -- -- 87
2020-01-25 19:00:00 9.5 0 Calma 13 Sur 0 -- -- 80
2020-01-25 18:00:00 10.7 5 Sur 12 Sudoeste 0 -- -- 75
2020-01-25 17:00:00 12.5 3 Sudoeste 13 Oeste 0 -- -- 65
2020-01-25 16:00:00 13 5 Oeste 10 Sudoeste 0 -- -- 63
2020-01-25 15:00:00 12.1 3 Sudoeste 8 Sudoeste 0 -- -- 69
2020-01-25 14:00:00 9.8 0 Calma 4 Noroeste 0 -- -- 90
2020-01-25 13:00:00 7.7 0 Calma 8 Oeste 0 -- -- 99
2020-01-25 12:00:00 5.6 4 Oeste 8 Oeste 0 -- -- 100
2020-01-25 11:00:00 4.6 0 Calma 6 Sudoeste 0 -- -- 100
2020-01-25 10:00:00 3.2 0 Calma 4 Noroeste 0 -- -- 100
2020-01-25 09:00:00 2.2 3 Oeste 5 Sudoeste 0 -- -- 100
2020-01-25 08:00:00 2.2 0 Calma 5 Oeste 0 -- -- 100
2020-01-25 07:00:00 2 2 Sudoeste 8 Sudoeste 0 -- -- 100
2020-01-25 06:00:00 1.8 2 Oeste 4 Sudoeste 0 -- -- 100
2020-01-25 05:00:00 2 2 Oeste 6 Oeste 0 -- -- 100
2020-01-25 04:00:00 2.5 5 Oeste 7 Sudoeste 0 -- -- 100
2020-01-25 03:00:00 2.5 2 Noroeste 5 Oeste 0 -- -- 100
2020-01-25 02:00:00 2.4 0 Calma 4 Sudoeste 0 -- -- 99
2020-01-25 01:00:00 3.2 0 Calma 4 Noroeste 0 -- -- 98
2020-01-25 00:00:00 4.3 0 Calma 4 Noroeste 0 -- -- 97
2020-01-24 23:00:00 5.7 0 Calma 3 Oeste 0 -- -- 96
2020-01-24 22:00:00 7.4 0 Calma 4 Oeste 0 -- -- 95
2020-01-24 21:00:00 7.9 0 Calma 4 Oeste 0 -- -- 94
2020-01-24 20:00:00 7.8 3 Oeste 9 Sudoeste 0 -- -- 93
2020-01-24 19:00:00 7.2 0 Calma 4 Sur 0 -- -- 92
2020-01-24 18:00:00 8.9 3 Sur 14 Nordeste 0 -- -- 85
2020-01-24 17:00:00 11.1 8 Este 25 Nordeste 0 -- -- 78
2020-01-24 16:00:00 12.8 13 Este 24 Este 0 -- -- 74
2020-01-24 15:00:00 15.1 6 Sudeste 19 Sudeste 0 -- -- 49
2020-01-24 14:00:00 14.8 9 Sur 16 Sur 0 -- -- 48
2020-01-24 13:00:00 13.8 6 Sur 18 Sudoeste 0 -- -- 52
2020-01-24 12:00:00 10.3 3 Sur 7 Sudeste 0 -- -- 79
2020-01-24 11:00:00 6 3 Sudoeste 6 Sudoeste 0 -- -- 100
2020-01-24 10:00:00 2.2 0 Calma 4 Noroeste 0 -- -- 100
2020-01-24 09:00:00 0.2 0 Calma 10 Oeste 0 -- -- 100
2020-01-24 08:00:00 0 0 Calma 5 Oeste 0 -- -- 100
2020-01-24 07:00:00 0.2 3 Oeste 5 Oeste 0 -- -- 100
2020-01-24 06:00:00 0.5 0 Calma 6 Sudoeste 0 -- -- 100
2020-01-24 05:00:00 1.2 0 Calma 5 Oeste 0 -- -- 100
2020-01-24 04:00:00 2 0 Calma 5 Sudoeste 0 -- -- 100
2020-01-24 03:00:00 2.3 2 Oeste 9 Oeste 0 -- -- 100
2020-01-24 02:00:00 2 4 Oeste 8 Oeste 0 -- -- 100
2020-01-24 01:00:00 2.2 0 Calma 4 Oeste 0 -- -- 100
2020-01-24 00:00:00 2.7 0 Calma 5 Sudoeste 0 -- -- 100
2020-01-23 23:00:00 3.6 0 Calma 4 Noroeste 0 -- -- 99
2020-01-23 22:00:00 4.3 0 Calma 6 Oeste 0 -- -- 99
2020-01-23 21:00:00 5.2 2 Oeste 5 Oeste 0 -- -- 98
2020-01-23 20:00:00 6.1 4 Sudoeste 5 Sudoeste 0 -- -- 97
2020-01-23 19:00:00 7.5 0 Calma 8 Sudoeste 0 -- -- 96
2020-01-23 18:00:00 9 0 Calma 5 Sur 0 -- -- 92
2020-01-23 17:00:00 10.8 3 Sur 7 Oeste 0 -- -- 89
2020-01-23 16:00:00 12.9 3 Sudeste 6 Este 0 -- -- 82
2020-01-23 15:00:00 13.1 4 Sudeste 11 Este 0 -- -- 78
2020-01-23 14:00:00 13.6 6 Este 10 Este 0 -- -- 76
2020-01-23 13:00:00 12.4 3 Oeste 8 Noroeste 0 -- -- 79
2020-01-23 12:00:00 10.6 2 Oeste 32 Nordeste 0 -- -- 86
2020-01-23 11:00:00 9.3 4 Sudoeste 9 Sudoeste 0.2 -- -- 94
2020-01-23 10:00:00 8.5 4 Sudeste 39 Oeste 8.2 -- -- 89
2020-01-23 09:00:00 10.9 13 Este 27 Este 0.4 -- -- 98
2020-01-23 08:00:00 10.8 8 Nordeste 37 Este 1.4 -- -- 98
2020-01-23 07:00:00 10.9 14 Este 38 Este 19.6 -- -- 98
2020-01-23 06:00:00 10.9 21 Este 42 Este 8.6 -- -- 98
2020-01-23 05:00:00 11.1 16 Este 38 Este 8.2 -- -- 99
2020-01-23 04:00:00 11.2 13 Este 43 Nordeste 11.2 -- -- 99
2020-01-23 03:00:00 11.1 17 Este 36 Este 4.8 -- -- 99
2020-01-23 02:00:00 11.1 13 Este 33 Este 3.2 -- -- 99
2020-01-23 01:00:00 11.1 10 Este 26 Este 0.4 -- -- 99
2020-01-23 00:00:00 11.1 13 Este 29 Nordeste 4.4 -- -- 99
2020-01-22 23:00:00 11.2 13 Este 36 Norte 8 -- -- 98
2020-01-22 22:00:00 11.2 4 Este 33 Nordeste 3.4 -- -- 97
2020-01-22 21:00:00 11.2 9 Este 34 Nordeste 5.2 -- -- 97
2020-01-22 20:00:00 11.3 13 Este 33 Nordeste 7.8 -- -- 97
2020-01-22 19:00:00 11.2 10 Este 33 Este 6.6 -- -- 97
2020-01-22 18:00:00 11.2 8 Este 23 Nordeste 2.4 -- -- 96
2020-01-22 17:00:00 11.3 9 Nordeste 25 Nordeste 2.2 -- -- 96
2020-01-22 16:00:00 11.3 10 Este 28 Sudeste 2 -- -- 97
2020-01-22 15:00:00 10.7 12 Este 26 Este 3.2 -- -- 100
2020-01-22 14:00:00 8.2 4 Noroeste 11 Oeste 4 -- -- 100
2020-01-22 13:00:00 7.8 3 Oeste 6 Oeste 3.6 -- -- 100
2020-01-22 12:00:00 7.4 3 Noroeste 10 Nordeste 3.2 -- -- 99
2020-01-22 11:00:00 7.1 4 Sudeste 8 Sudeste 1.2 -- -- 100
2020-01-22 10:00:00 6.5 3 Noroeste 7 Sudoeste 5.2 -- -- 99
2020-01-22 09:00:00 6.3 4 Noroeste 8 Sudoeste 5.8 -- -- 97
2020-01-22 08:00:00 6.3 2 Sudoeste 24 Oeste 10 -- -- 96
2020-01-22 07:00:00 6.6 10 Oeste 23 Oeste 25.6 -- -- 97
2020-01-22 06:00:00 10 11 Este 40 Sudeste 22.6 -- -- 98
2020-01-22 05:00:00 10 19 Este 44 Este 9.2 -- -- 98
2020-01-22 04:00:00 9.7 19 Este 48 Nordeste 6.4 -- -- 97
2020-01-22 03:00:00 9.5 17 Este 36 Este 10.2 -- -- 96
2020-01-22 02:00:00 9.1 16 Este 34 Nordeste 10.4 -- -- 96
2020-01-22 01:00:00 8.9 16 Este 37 Este 10.6 -- -- 96
2020-01-22 00:00:00 9.1 15 Este 41 Nordeste 10 -- -- 94
2020-01-21 23:00:00 8.8 12 Este 36 Este 7.2 -- -- 95
2020-01-21 22:00:00 9.1 18 Nordeste 36 Nordeste 5.4 -- -- 91
2020-01-21 21:00:00 8.7 13 Nordeste 30 Este 4.4 -- -- 90
2020-01-21 20:00:00 8.4 13 Nordeste 41 Nordeste 2.2 -- -- 93
2020-01-21 19:00:00 8.3 10 Este 36 Nordeste 0.8 -- -- 92
2020-01-21 18:00:00 8.2 11 Este 32 Nordeste 2.6 -- -- 94
2020-01-21 17:00:00 7.8 8 Este 26 Este 5.4 -- -- 95
2020-01-21 16:00:00 7.8 10 Este 21 Nordeste 7 -- -- 96
2020-01-21 15:00:00 7.8 6 Este 29 Nordeste 6 -- -- 95
2020-01-21 14:00:00 7.3 9 Nordeste 23 Norte 9.6 -- -- 98
2020-01-21 13:00:00 7 2 Sur 18 Nordeste 11.4 -- -- 95
2020-01-21 12:00:00 6.8 4 Este 41 Nordeste 7.6 -- -- 94
2020-01-21 11:00:00 6.4 13 Nordeste 31 Nordeste 9.4 -- -- 89
2020-01-21 10:00:00 6.1 13 Nordeste 27 Nordeste 7 -- -- 89
2020-01-21 09:00:00 5.8 14 Nordeste 33 Este 5.6 -- -- 87
2020-01-21 08:00:00 4.9 8 Nordeste 28 Norte 5.2 -- -- 94
2020-01-21 07:00:00 2 2 Sur 14 Sudoeste 2 -- -- 98
2020-01-21 06:00:00 2 4 Oeste 10 Oeste 3.4 -- -- 97
2020-01-21 05:00:00 2.4 3 Oeste 8 Oeste 4.2 -- -- 97
2020-01-21 04:00:00 2.2 3 Sudoeste 9 Oeste 3.6 -- -- 95
2020-01-21 03:00:00 3 4 Sur 17 Sudeste 5.4 -- -- 92
2020-01-21 02:00:00 3.6 9 Este 17 Este 2.4 -- -- 92
2020-01-21 01:00:00 3.8 6 Este 12 Nordeste 1.6 -- -- 94
2020-01-21 00:00:00 3.6 2 Sudoeste 9 Sudoeste 1 -- -- 95
2020-01-20 23:00:00 3.8 3 Oeste 15 Sudeste 1 -- -- 91
2020-01-20 22:00:00 3.9 7 Este 19 Este 1 -- -- 89
2020-01-20 21:00:00 3.8 9 Este 23 Nordeste 1.2 -- -- 88
2020-01-20 20:00:00 4.8 13 Este 28 Nordeste 0.2 -- -- 80
2020-01-20 19:00:00 5.6 13 Este 27 Este 0 -- -- 68
2020-01-20 18:00:00 6.1 12 Este 31 Nordeste 0 -- -- 64
2020-01-20 17:00:00 6.5 14 Este 37 Este 0 -- -- 61
2020-01-20 16:00:00 6.6 15 Este 33 Este 0 -- -- 60
2020-01-20 15:00:00 7 7 Nordeste 31 Este 0 -- -- 56
2020-01-20 14:00:00 7.1 11 Nordeste 30 Nordeste 0 -- -- 55
2020-01-20 13:00:00 6.4 9 Este 22 Este 0 -- -- 58
2020-01-20 12:00:00 5.9 8 Este 19 Este 0 -- -- 58
2020-01-20 11:00:00 5.7 3 Sudeste 13 Sudeste 0 -- -- 60
2020-01-20 10:00:00 5.4 3 Este 19 Nordeste 0 -- -- 61
2020-01-20 09:00:00 5.4 6 Nordeste 28 Noroeste 0 -- -- 56
2020-01-20 08:00:00 5.6 8 Nordeste 34 Norte 0 -- -- 52
2020-01-20 07:00:00 6.2 11 Norte 32 Nordeste 0 -- -- 48
2020-01-20 06:00:00 6.8 13 Norte 31 Nordeste 0 -- -- 40
2020-01-20 05:00:00 6.8 9 Este 25 Este 0 -- -- 36
2020-01-20 04:00:00 6.7 5 Sudeste 21 Nordeste 0 -- -- 36
2020-01-20 03:00:00 6.8 5 Nordeste 22 Este 0 -- -- 33
2020-01-20 02:00:00 7.1 11 Nordeste 38 Este 0 -- -- 29
2020-01-20 01:00:00 7.1 14 Nordeste 41 Nordeste 0 -- -- 28
2020-01-20 00:00:00 7 20 Nordeste 43 Nordeste 0 -- -- 28
2020-01-19 23:00:00 6.9 18 Este 44 Este 0 -- -- 30
2020-01-19 22:00:00 7 19 Este 40 Nordeste 0 -- -- 28
2020-01-19 21:00:00 7.2 19 Este 37 Nordeste 0 -- -- 27
2020-01-19 20:00:00 7.6 22 Este 43 Nordeste 0 -- -- 26
2020-01-19 19:00:00 7.8 23 Nordeste 51 Nordeste 0 -- -- 26
2020-01-19 18:00:00 8 18 Este 60 Nordeste 0 -- -- 27
2020-01-19 17:00:00 9.1 21 Nordeste 48 Este 0 -- -- 22
2020-01-19 16:00:00 10.2 18 Este 37 Nordeste 0 -- -- 23
2020-01-19 15:00:00 9.8 17 Este 40 Nordeste 0 -- -- 25
2020-01-19 14:00:00 10 18 Este 41 Nordeste 0 -- -- 33
2020-01-19 13:00:00 9.9 13 Este 28 Nordeste 0 -- -- 37
2020-01-19 12:00:00 9.8 14 Este 28 Este 0 -- -- 38
2020-01-19 11:00:00 9.2 9 Este 19 Nordeste 0 -- -- 43
2020-01-19 10:00:00 6.2 0 Calma 10 Este 0 -- -- 66
2020-01-19 09:00:00 5.5 3 Sudeste 21 Nordeste 0 -- -- 67
2020-01-19 08:00:00 4.1 4 Sudoeste 9 Oeste 0 -- -- 87
2020-01-19 07:00:00 5 4 Este 9 Este 0 -- -- 83
2020-01-19 06:00:00 4.6 2 Oeste 5 Sudoeste 0 -- -- 97
2020-01-19 05:00:00 4.6 0 Calma 8 Sudoeste 0 -- -- 98
2020-01-19 04:00:00 4.5 4 Oeste 9 Sudoeste 0 -- -- 98
2020-01-19 03:00:00 4.1 0 Calma 4 Oeste 0 -- -- 99
2020-01-19 02:00:00 3.9 0 Calma 5 Oeste 0 -- -- 99
2020-01-19 01:00:00 3.4 0 Calma 4 Sudoeste 0 -- -- 98
2020-01-19 00:00:00 2.8 0 Calma 3 Sudoeste 0 -- -- 98
2020-01-18 23:00:00 3.4 0 Calma 6 Oeste 0 -- -- 96
2020-01-18 22:00:00 4.3 0 Calma 4 Nordeste 0 -- -- 96
2020-01-18 21:00:00 4.3 0 Calma 4 Norte 0 -- -- 94
2020-01-18 20:00:00 5.4 4 Oeste 6 Oeste 0 -- -- 93
2020-01-18 19:00:00 6.4 0 Calma 17 Este 0 -- -- 88
2020-01-18 18:00:00 7.8 6 Sudeste 17 Este 0 -- -- 85
2020-01-18 17:00:00 9.6 6 Este 19 Nordeste 0 -- -- 78
2020-01-18 16:00:00 11.3 10 Este 25 Este 0 -- -- 69
2020-01-18 15:00:00 11.8 10 Sudeste 21 Este 0 -- -- 65
2020-01-18 14:00:00 12.6 4 Sudeste 15 Este 0 -- -- 59
2020-01-18 13:00:00 10.8 2 Sudeste 5 Sudeste 0 -- -- 64
2020-01-18 12:00:00 5.7 4 Oeste 7 Oeste 0 -- -- 96
2020-01-18 11:00:00 3.7 0 Calma 6 Oeste 0 -- -- 100
2020-01-18 10:00:00 0.6 2 Noroeste 7 Noroeste 0 -- -- 100
2020-01-18 09:00:00 -0.4 2 Este 5 Sudoeste 0 -- -- 100
2020-01-18 08:00:00 -0.6 4 Oeste 7 Oeste 0 -- -- 100
2020-01-18 07:00:00 -0.9 2 Este 5 Oeste 0 -- -- 100
2020-01-18 06:00:00 -1.5 3 Sudoeste 8 Oeste 0 -- -- 100
2020-01-18 05:00:00 -2 0 Calma 4 Sur 0 -- -- 99
2020-01-18 04:00:00 -1.4 3 Oeste 5 Sur 0 -- -- 99
2020-01-18 03:00:00 -1.3 0 Calma 7 Noroeste 0 -- -- 99
2020-01-18 02:00:00 -1 0 Calma 4 Oeste 0 -- -- 99
2020-01-18 01:00:00 -0.2 0 Calma 8 Oeste 0 -- -- 99
2020-01-18 00:00:00 0.1 0 Calma 6 Oeste 0 -- -- 98
2020-01-17 23:00:00 0.9 3 Oeste 6 Sur 0 -- -- 98
2020-01-17 22:00:00 1.9 3 Oeste 8 Noroeste 0 -- -- 96
2020-01-17 21:00:00 3 3 Sudoeste 11 Sudoeste 0 -- -- 96
2020-01-17 20:00:00 3.8 4 Oeste 8 Sudoeste 0 -- -- 95
2020-01-17 19:00:00 5.6 2 Nordeste 6 Sudeste 0 -- -- 92
2020-01-17 18:00:00 8.1 3 Sudeste 35 Noroeste 1 -- -- 85
2020-01-17 17:00:00 12.6 9 Nordeste 31 Este 0 -- -- 65
2020-01-17 16:00:00 16.1 9 Sur 29 Oeste 0 -- -- 48
2020-01-17 15:00:00 17.1 9 Sudeste 24 Oeste 0 -- -- 47
2020-01-17 14:00:00 16.9 3 Sudeste 13 Sudeste 0 -- -- 50
2020-01-17 13:00:00 15.7 5 Sudeste 9 Este 0 -- -- 51
2020-01-17 12:00:00 14.5 3 Sur 6 Sudoeste 0 -- -- 58
2020-01-17 11:00:00 10.5 0 Calma 4 Sudeste 0 -- -- 74
2020-01-17 10:00:00 5.8 3 Sudeste 5 Sudoeste 0 -- -- 88
2020-01-17 09:00:00 5.3 0 Calma 8 Noroeste 0 -- -- 83
2020-01-17 08:00:00 8.6 6 Este 13 Este 0 -- -- 76
2020-01-17 07:00:00 10.7 3 Este 29 Sudoeste 0 -- -- 64
2020-01-17 06:00:00 4.3 3 Sudeste 8 Sudeste 0 -- -- 98
2020-01-17 05:00:00 3.2 3 Sudoeste 16 Oeste 0 -- -- 99
2020-01-17 04:00:00 2.6 4 Oeste 15 Oeste 0 -- -- 100
2020-01-17 03:00:00 1.6 5 Sudoeste 10 Norte 0 -- -- 100
2020-01-17 02:00:00 1.1 3 Oeste 13 Oeste 0 -- -- 99
2020-01-17 01:00:00 0.7 3 Sudoeste 8 Oeste 0 -- -- 99
2020-01-17 00:00:00 1.2 3 Oeste 8 Oeste 0 -- -- 98
2020-01-16 23:00:00 1.2 4 Oeste 10 Noroeste 0 -- -- 99
2020-01-16 22:00:00 1.4 0 Calma 7 Noroeste 0 -- -- 97
2020-01-16 21:00:00 2.1 0 Calma 5 Noroeste 0 -- -- 95
2020-01-16 20:00:00 3.1 3 Sur 5 Sur 0 -- -- 94
2020-01-16 19:00:00 4.9 0 Calma 6 Sudoeste 0 -- -- 90
2020-01-16 18:00:00 7.7 3 Sudoeste 15 Sudeste 0 -- -- 83
2020-01-16 17:00:00 10.6 7 Este 17 Este 0 -- -- 76
2020-01-16 16:00:00 12.2 8 Este 20 Este 0 -- -- 69
2020-01-16 15:00:00 13.3 7 Este 16 Este 0 -- -- 66
2020-01-16 14:00:00 12.5 7 Sudeste 13 Este 0 -- -- 66
2020-01-16 13:00:00 11.4 4 Sudoeste 6 Sudoeste 0 -- -- 66
2020-01-16 12:00:00 8.4 3 Sudeste 5 Sudoeste 0 -- -- 73
2020-01-16 11:00:00 3.6 4 Sudoeste 5 Sudoeste 0 -- -- 93
2020-01-16 10:00:00 -1.3 0 Calma 3 Noroeste 0 -- -- 99
2020-01-16 09:00:00 -3.2 0 Calma 2 Sudeste 0 -- -- 99
2020-01-16 08:00:00 -3.1 0 Calma 6 Oeste 0 -- -- 98
2020-01-16 07:00:00 -2.9 0 Calma 4 Oeste 0 -- -- 98
2020-01-16 06:00:00 -2.7 0 Calma 4 Sudeste 0 -- -- 98
2020-01-16 05:00:00 -2.4 3 Oeste 6 Noroeste 0 -- -- 98
2020-01-16 04:00:00 -2.2 0 Calma 9 Noroeste 0 -- -- 98
2020-01-16 03:00:00 -1.9 0 Calma 5 Oeste 0 -- -- 97
2020-01-16 02:00:00 -1.5 0 Calma 5 Oeste 0 -- -- 97
2020-01-16 01:00:00 -1.1 0 Calma 5 Noroeste 0 -- -- 96
2020-01-16 00:00:00 -0.8 0 Calma 6 Oeste 0 -- -- 95
2020-01-15 23:00:00 -0.2 0 Calma 4 Noroeste 0 -- -- 94
2020-01-15 22:00:00 0.9 0 Calma 3 Oeste 0 -- -- 93
2020-01-15 21:00:00 1.8 0 Calma 3 Oeste 0 -- -- 91
2020-01-15 20:00:00 3.3 0 Calma 4 Noroeste 0 -- -- 86
2020-01-15 19:00:00 5.7 0 Calma 6 Sudeste 0 -- -- 78
2020-01-15 18:00:00 9.2 3 Este 12 Sudeste 0 -- -- 65
2020-01-15 17:00:00 11.9 8 Este 13 Sudeste 0 -- -- 54
2020-01-15 16:00:00 13.5 6 Este 18 Este 0 -- -- 49
2020-01-15 15:00:00 14.7 8 Este 19 Este 0 -- -- 43
2020-01-15 14:00:00 13.3 5 Este 10 Nordeste 0 -- -- 46
2020-01-15 13:00:00 11.2 0 Calma 6 Sudoeste 0 -- -- 51
2020-01-15 12:00:00 9.5 3 Sudoeste 6 Sudoeste 0 -- -- 64
2020-01-15 11:00:00 5.9 2 Sudoeste 8 Sudoeste 0 -- -- 82
2020-01-15 10:00:00 -0.1 3 Sudoeste 6 Oeste 0 -- -- 99
2020-01-15 09:00:00 -2.4 3 Oeste 5 Oeste 0 -- -- 97
2020-01-15 08:00:00 -2.4 4 Noroeste 9 Oeste 0 -- -- 97
2020-01-15 07:00:00 -2.5 3 Oeste 5 Oeste 0 -- -- 96
2020-01-15 06:00:00 -2.6 3 Oeste 8 Oeste 0 -- -- 96
2020-01-15 05:00:00 -2.7 3 Oeste 7 Oeste 0 -- -- 97
2020-01-15 04:00:00 -2.6 3 Oeste 6 Oeste 0 -- -- 96
2020-01-15 03:00:00 -2.3 2 Oeste 6 Sudoeste 0 -- -- 96
2020-01-15 02:00:00 -2 3 Oeste 7 Noroeste 0 -- -- 96
2020-01-15 01:00:00 -1.8 4 Oeste 10 Oeste 0 -- -- 95
2020-01-15 00:00:00 -1.8 4 Oeste 7 Sudoeste 0 -- -- 95
2020-01-14 23:00:00 -1.2 0 Calma 5 Sudoeste 0 -- -- 94
2020-01-14 22:00:00 -0.7 0 Calma 8 Oeste 0 -- -- 93
2020-01-14 21:00:00 0.3 0 Calma 6 Noroeste 0 -- -- 90
2020-01-14 20:00:00 1.4 3 Oeste 5 Oeste 0 -- -- 86
2020-01-14 19:00:00 3.4 0 Calma 4 Oeste 0 -- -- 79
2020-01-14 18:00:00 6.2 0 Calma 16 Sudeste 0 -- -- 71
2020-01-14 17:00:00 10.5 8 Sudeste 20 Sudeste 0 -- -- 56
2020-01-14 16:00:00 10.4 4 Sudeste 10 Este 0 -- -- 52
2020-01-14 15:00:00 12.3 5 Sudeste 8 Sudeste 0 -- -- 50
2020-01-14 14:00:00 11.8 3 Sudoeste 5 Sur 0 -- -- 56
2020-01-14 13:00:00 9.7 3 Sur 5 Sur 0 -- -- 58
2020-01-14 12:00:00 7.1 3 Sudoeste 5 Sudoeste 0 -- -- 68
2020-01-14 11:00:00 2.4 3 Sudoeste 5 Sudoeste 0 -- -- 92
2020-01-14 10:00:00 -2 2 Sudoeste 5 Sudoeste 0 -- -- 100
2020-01-14 09:00:00 -3.3 2 Oeste 4 Noroeste 0 -- -- 98
2020-01-14 08:00:00 -3.5 0 Calma 5 Oeste 0 -- -- 99
2020-01-14 07:00:00 -4.1 0 Calma 4 Oeste 0 -- -- 99
2020-01-14 06:00:00 -4 0 Calma 5 Noroeste 0 -- -- 99
2020-01-14 05:00:00 -3.7 0 Calma 5 Oeste 0 -- -- 99
2020-01-14 04:00:00 -3.4 3 Oeste 6 Oeste 0 -- -- 99
2020-01-14 03:00:00 -3.1 2 Sudoeste 4 Oeste 0 -- -- 99
2020-01-14 02:00:00 -2.6 0 Calma 6 Oeste 0 -- -- 99
2020-01-14 01:00:00 -2.2 0 Calma 4 Sudoeste 0 -- -- 98
2020-01-14 00:00:00 -1.5 3 Oeste 5 Oeste 0 -- -- 98
2020-01-13 23:00:00 -0.8 2 Oeste 5 Oeste 0 -- -- 97
2020-01-13 22:00:00 0.2 0 Calma 5 Oeste 0 -- -- 95
2020-01-13 21:00:00 1.7 2 Oeste 5 Noroeste 0 -- -- 94
2020-01-13 20:00:00 3.5 0 Calma 8 Sudoeste 0 -- -- 92
2020-01-13 19:00:00 4.6 0 Calma 5 Sudeste 0 -- -- 89
2020-01-13 18:00:00 7.2 6 Sudeste 11 Este 0 -- -- 82
2020-01-13 17:00:00 8.7 7 Este 16 Este 0 -- -- 79
2020-01-13 16:00:00 10.2 7 Este 14 Este 0 -- -- 72
2020-01-13 15:00:00 11.3 6 Este 14 Este 0 -- -- 63
2020-01-13 14:00:00 10.6 5 Sudeste 10 Este 0 -- -- 56
2020-01-13 13:00:00 8.9 2 Sudoeste 5 Sudoeste 0 -- -- 50
2020-01-13 12:00:00 6.8 2 Sur 4 Sudoeste 0 -- -- 60
2020-01-13 11:00:00 1.8 2 Sudoeste 3 Sudoeste 0 -- -- 86
2020-01-13 10:00:00 -3.3 0 Calma 5 Oeste 0 -- -- 99
2020-01-13 09:00:00 -5 0 Calma 4 Sudoeste 0 -- -- 97
2020-01-13 08:00:00 -4.9 0 Calma 5 Oeste 0 -- -- 97
2020-01-13 07:00:00 -4.9 0 Calma 5 Oeste 0 -- -- 97
2020-01-13 06:00:00 -4.7 0 Calma 5 Oeste 0 -- -- 97
2020-01-13 05:00:00 -4.2 0 Calma 4 Noroeste 0 -- -- 98
2020-01-13 04:00:00 -4.1 0 Calma 4 Oeste 0 -- -- 97
2020-01-13 03:00:00 -3.7 0 Calma 6 Oeste 0 -- -- 97
2020-01-13 02:00:00 -3.3 0 Calma 5 Oeste 0 -- -- 97
2020-01-13 01:00:00 -2.8 0 Calma 5 Oeste 0 -- -- 97
2020-01-13 00:00:00 -2.2 0 Calma 5 Oeste 0 -- -- 96
2020-01-12 23:00:00 -1.7 0 Calma 4 Oeste 0 -- -- 95
2020-01-12 22:00:00 -1 0 Calma 4 Norte 0 -- -- 94
2020-01-12 21:00:00 -0.2 0 Calma 4 Sudoeste 0 -- -- 93
2020-01-12 20:00:00 0.9 0 Calma 5 Oeste 0 -- -- 89
2020-01-12 19:00:00 2.3 0 Calma 3 Sudoeste 0 -- -- 86
2020-01-12 18:00:00 4.4 0 Calma 7 Oeste 0 -- -- 76
2020-01-12 17:00:00 6.7 3 Sudoeste 6 Sudoeste 0 -- -- 72
2020-01-12 16:00:00 9.6 3 Sur 5 Sur 0 -- -- 63
2020-01-12 15:00:00 11.3 3 Sudeste 5 Sudeste 0 -- -- 56
2020-01-12 14:00:00 10.9 3 Sur 5 Sur 0 -- -- 59
2020-01-12 13:00:00 8.8 3 Sur 4 Sur 0 -- -- 56
2020-01-12 12:00:00 6.2 2 Sudeste 4 Sudeste 0 -- -- 75
2020-01-12 11:00:00 1.5 2 Sur 5 Oeste 0 -- -- 100
2020-01-12 10:00:00 -3.2 3 Sudoeste 5 Sudoeste 0 -- -- 100
2020-01-12 09:00:00 -4.5 0 Calma 3 Oeste 0 -- -- 99
2020-01-12 08:00:00 -4.2 0 Calma 4 Oeste 0 -- -- 100
2020-01-12 07:00:00 -3.9 0 Calma 4 Oeste 0 -- -- 100
2020-01-12 06:00:00 -3.5 0 Calma 5 Oeste 0 -- -- 100
2020-01-12 05:00:00 -3.3 0 Calma 4 Oeste 0 -- -- 100
2020-01-12 04:00:00 -2.9 0 Calma 4 Sudoeste 0 -- -- 100
2020-01-12 03:00:00 -2.2 2 Noroeste 4 Oeste 0 -- -- 100
2020-01-12 02:00:00 -1.9 2 Oeste 5 Oeste 0 -- -- 99
2020-01-12 01:00:00 -1.8 3 Oeste 6 Oeste 0 -- -- 98
2020-01-12 00:00:00 -1.6 2 Sur 5 Oeste 0 -- -- 98
2020-01-11 23:00:00 -1.1 0 Calma 4 Oeste 0 -- -- 98
2020-01-11 22:00:00 -0.4 0 Calma 4 Noroeste 0 -- -- 97
2020-01-11 21:00:00 0.6 0 Calma 5 Oeste 0 -- -- 96
2020-01-11 20:00:00 1.5 0 Calma 4 Noroeste 0 -- -- 94
2020-01-11 19:00:00 3 3 Noroeste 6 Oeste 0 -- -- 92
2020-01-11 18:00:00 5 0 Calma 7 Sudoeste 0 -- -- 89
2020-01-11 17:00:00 6.9 2 Sur 8 Sudeste 0 -- -- 84
2020-01-11 16:00:00 9.7 6 Sudeste 11 Este 0 -- -- 71
2020-01-11 15:00:00 11.7 6 Este 15 Este 0 -- -- 65
2020-01-11 14:00:00 10.3 3 Sudeste 6 Sudeste 0 -- -- 71
2020-01-11 13:00:00 9 2 Sur 6 Sur 0 -- -- 78
2020-01-11 12:00:00 6.9 4 Sur 7 Sudoeste 0 -- -- 95
2020-01-11 11:00:00 2.3 3 Sudoeste 6 Sudoeste 0 -- -- 100
2020-01-11 10:00:00 -0.9 0 Calma 5 Sudoeste 0 -- -- 100
2020-01-11 09:00:00 -1.4 2 Sudoeste 8 Oeste 0 -- -- 100
2020-01-11 08:00:00 -0.8 2 Sudoeste 5 Oeste 0 -- -- 100
2020-01-11 07:00:00 -0.5 2 Sudoeste 7 Oeste 0 -- -- 100
2020-01-11 06:00:00 -0.3 4 Oeste 8 Norte 0 -- -- 100
2020-01-11 05:00:00 -0.4 3 Sudoeste 6 Oeste 0 -- -- 100
2020-01-11 04:00:00 0 2 Sudoeste 9 Sudoeste 0 -- -- 100
2020-01-11 03:00:00 0.6 0 Calma 7 Oeste 0 -- -- 100
2020-01-11 02:00:00 0.2 4 Oeste 9 Oeste 0 -- -- 100
2020-01-11 01:00:00 0.3 2 Sudoeste 7 Noroeste 0 -- -- 100
2020-01-11 00:00:00 0.3 2 Oeste 8 Noroeste 0 -- -- 99
2020-01-10 23:00:00 0.8 3 Sudoeste 5 Sudoeste 0 -- -- 98
2020-01-10 22:00:00 1.6 3 Oeste 5 Oeste 0 -- -- 98
2020-01-10 21:00:00 2.6 0 Calma 6 Oeste 0 -- -- 97
2020-01-10 20:00:00 3.7 3 Oeste 6 Oeste 0 -- -- 95
2020-01-10 19:00:00 5.2 0 Calma 8 Oeste 0 -- -- 94
2020-01-10 18:00:00 6.8 2 Oeste 6 Oeste 0 -- -- 89
2020-01-10 17:00:00 9 0 Calma 8 Oeste 0 -- -- 84
2020-01-10 16:00:00 11.7 3 Sudeste 7 Noroeste 0 -- -- 77
2020-01-10 15:00:00 12 3 Sudoeste 9 Este 0 -- -- 75
2020-01-10 14:00:00 11.8 4 Este 8 Sudeste 0 -- -- 71
2020-01-10 13:00:00 11.1 3 Nordeste 8 Sudeste 0 -- -- 76
2020-01-10 12:00:00 9.3 0 Calma 4 Sudoeste 0 -- -- 92
2020-01-10 11:00:00 7.7 4 Oeste 6 Sudeste 0 -- -- 99
2020-01-10 10:00:00 6.4 3 Noroeste 9 Sudoeste 0 -- -- 99
2020-01-10 09:00:00 6.2 3 Oeste 5 Sudoeste 0 -- -- 99
2020-01-10 08:00:00 6.5 3 Oeste 5 Norte 0.8 -- -- 98
2020-01-10 07:00:00 6.6 3 Sur 6 Norte 3.2 -- -- 97
2020-01-10 06:00:00 6.9 0 Calma 11 Este 0.6 -- -- 92
2020-01-10 05:00:00 6.8 4 Este 7 Este 0 -- -- 86
2020-01-10 04:00:00 6.3 0 Calma 7 Oeste 0 -- -- 87
2020-01-10 03:00:00 6.2 2 Sudoeste 6 Oeste 0 -- -- 87
2020-01-10 02:00:00 6.2 2 Nordeste 6 Oeste 0 -- -- 85
2020-01-10 01:00:00 6.2 4 Oeste 9 Sudoeste 0 -- -- 84
2020-01-10 00:00:00 6.6 3 Este 10 Este 0 -- -- 80
2020-01-09 23:00:00 6.4 2 Sudoeste 9 Oeste 0 -- -- 78
2020-01-09 22:00:00 6.4 2 Este 10 Oeste 0 -- -- 79
2020-01-09 21:00:00 5.4 2 Oeste 8 Noroeste 0 -- -- 84
2020-01-09 20:00:00 5.9 3 Sudoeste 9 Sudoeste 0 -- -- 78
2020-01-09 19:00:00 7.3 0 Calma 14 Oeste 0 -- -- 73
2020-01-09 18:00:00 10.6 4 Oeste 19 Sudoeste 0 -- -- 62
2020-01-09 17:00:00 11 4 Sur 14 Sur 0 -- -- 61
2020-01-09 16:00:00 12.8 4 Sudeste 7 Sudeste 0 -- -- 59
2020-01-09 15:00:00 15 4 Sudeste 8 Sudeste 0 -- -- 50
2020-01-09 14:00:00 14.3 3 Sur 6 Sudeste 0 -- -- 60
2020-01-09 13:00:00 12.5 2 Sur 5 Oeste 0 -- -- 66
2020-01-09 12:00:00 10 3 Sur 6 Sudoeste 0 -- -- 82
2020-01-09 11:00:00 4.3 0 Calma 3 Sudoeste 0 -- -- 100
2020-01-09 10:00:00 -0.5 0 Calma 4 Oeste 0 -- -- 100
2020-01-09 09:00:00 -1.2 2 Oeste 5 Oeste 0 -- -- 100
2020-01-09 08:00:00 -1.3 0 Calma 3 Noroeste 0 -- -- 100
2020-01-09 07:00:00 -1.3 0 Calma 4 Oeste 0 -- -- 100
2020-01-09 06:00:00 -1.2 2 Oeste 4 Sudoeste 0 -- -- 100
2020-01-09 05:00:00 -1.2 0 Calma 4 Sudoeste 0 -- -- 100
2020-01-09 04:00:00 -0.9 0 Calma 4 Oeste 0 -- -- 100
2020-01-09 03:00:00 -0.7 0 Calma 4 Sudoeste 0 -- -- 99
2020-01-09 02:00:00 -0.3 0 Calma 5 Noroeste 0 -- -- 98
2020-01-09 01:00:00 0.1 0 Calma 5 Oeste 0 -- -- 98
2020-01-09 00:00:00 0.7 0 Calma 3 Noroeste 0 -- -- 98
2020-01-08 23:00:00 1.4 0 Calma 5 Oeste 0 -- -- 97
2020-01-08 22:00:00 2.4 3 Oeste 5 Oeste 0 -- -- 96
2020-01-08 21:00:00 3.3 0 Calma 6 Sudoeste 0 -- -- 94
2020-01-08 20:00:00 4.5 0 Calma 5 Oeste 0 -- -- 90
2020-01-08 19:00:00 6.4 0 Calma 5 Noroeste 0 -- -- 86
2020-01-08 18:00:00 8.8 4 Sudoeste 8 Este 0 -- -- 80
2020-01-08 17:00:00 12.3 6 Este 15 Este 0 -- -- 67
2020-01-08 16:00:00 14.3 8 Sudeste 15 Este 0 -- -- 61
2020-01-08 15:00:00 16.6 5 Este 11 Nordeste 0 -- -- 58
2020-01-08 14:00:00 15.6 5 Este 11 Este 0 -- -- 64
2020-01-08 13:00:00 13 2 Sudeste 7 Este 0 -- -- 59
2020-01-08 12:00:00 10.6 0 Calma 6 Sudoeste 0 -- -- 68
2020-01-08 11:00:00 5.1 0 Calma 5 Sudoeste 0 -- -- 82
2020-01-08 10:00:00 -0.4 3 Sur 8 Sudoeste 0 -- -- 99
2020-01-08 09:00:00 -1.5 0 Calma 5 Noroeste 0 -- -- 98
2020-01-08 08:00:00 -1.6 3 Oeste 6 Sudoeste 0 -- -- 98
2020-01-08 07:00:00 -1.4 3 Oeste 9 Oeste 0 -- -- 98
2020-01-08 06:00:00 -1.1 2 Oeste 5 Noroeste 0 -- -- 98
2020-01-08 05:00:00 -0.8 2 Sudoeste 7 Oeste 0 -- -- 98
2020-01-08 04:00:00 -0.9 4 Noroeste 8 Oeste 0 -- -- 99
2020-01-08 03:00:00 -0.9 2 Oeste 7 Oeste 0 -- -- 98
2020-01-08 02:00:00 -0.5 0 Calma 5 Oeste 0 -- -- 98
2020-01-08 01:00:00 0.1 0 Calma 4 Oeste 0 -- -- 97
2020-01-08 00:00:00 0.8 0 Calma 6 Sudoeste 0 -- -- 96
2020-01-07 23:00:00 1.5 2 Noroeste 7 Noroeste 0 -- -- 95
2020-01-07 22:00:00 2.3 2 Sudeste 7 Oeste 0 -- -- 94
2020-01-07 21:00:00 2.9 0 Calma 5 Noroeste 0 -- -- 93
2020-01-07 20:00:00 3.8 3 Oeste 7 Noroeste 0 -- -- 90
2020-01-07 19:00:00 5.1 0 Calma 3 Noroeste 0 -- -- 88
2020-01-07 18:00:00 7.1 0 Calma 7 Oeste 0 -- -- 80
2020-01-07 17:00:00 10 3 Sudoeste 6 Sudoeste 0 -- -- 73
2020-01-07 16:00:00 12.3 3 Sudeste 5 Este 0 -- -- 63
2020-01-07 15:00:00 14.1 3 Sudeste 13 Este 0 -- -- 58
2020-01-07 14:00:00 14.1 6 Este 13 Este 0 -- -- 53
2020-01-07 13:00:00 12.3 2 Sur 4 Sur 0 -- -- 58
2020-01-07 12:00:00 9.1 0 Calma 4 Sudeste 0 -- -- 83
2020-01-07 11:00:00 3.7 0 Calma 8 Oeste 0 -- -- 100
2020-01-07 10:00:00 -0.8 0 Calma 5 Oeste 0 -- -- 100
2020-01-07 09:00:00 -1.9 2 Noroeste 5 Oeste 0 -- -- 100
2020-01-07 08:00:00 -1.5 0 Calma 7 Sudoeste 0 -- -- 100
2020-01-07 07:00:00 -1.1 4 Oeste 6 Oeste 0 -- -- 100
2020-01-07 06:00:00 -1 0 Calma 3 Oeste 0 -- -- 100
2020-01-07 05:00:00 -0.7 0 Calma 8 Oeste 0 -- -- 100
2020-01-07 04:00:00 -0.6 2 Sudoeste 8 Noroeste 0 -- -- 100
2020-01-07 03:00:00 -0.4 2 Norte 7 Oeste 0 -- -- 99
2020-01-07 02:00:00 0.2 2 Oeste 5 Noroeste 0 -- -- 99
2020-01-07 01:00:00 1.4 2 Sudoeste 6 Oeste 0 -- -- 99
2020-01-07 00:00:00 2.4 0 Calma 6 Oeste 0 -- -- 98
2020-01-06 23:00:00 1.6 0 Calma 2 Este 0 -- -- 99
2020-01-06 22:00:00 0.5 0 Calma 5 Oeste 0 -- -- 97
2020-01-06 21:00:00 1.3 0 Calma 5 Oeste 0 -- -- 95
2020-01-06 20:00:00 2.5 0 Calma 4 Noroeste 0 -- -- 93
2020-01-06 19:00:00 3.8 0 Calma 5 Oeste 0 -- -- 90
2020-01-06 18:00:00 5.8 0 Calma 8 Sudoeste 0 -- -- 86
2020-01-06 17:00:00 8.4 3 Sudoeste 11 Este 0 -- -- 79
2020-01-06 16:00:00 12 7 Sudeste 12 Sudeste 0 -- -- 70
2020-01-06 15:00:00 13.1 3 Sudeste 5 Este 0 -- -- 61
2020-01-06 14:00:00 12.1 3 Sudeste 6 Sudoeste 0 -- -- 60
2020-01-06 13:00:00 10.8 2 Sur 4 Oeste 0 -- -- 59
2020-01-06 12:00:00 8.6 0 Calma 4 Sudoeste 0 -- -- 68
2020-01-06 11:00:00 2.6 0 Calma 2 Sudoeste 0 -- -- 98
2020-01-06 10:00:00 -2.6 0 Calma 4 Noroeste 0 -- -- 99